createdAt,value
2019-03-25T00:01:23.995Z,4.76
2019-03-25T00:03:56.152Z,4.82
2019-03-25T00:06:28.173Z,4.98
2019-03-25T00:09:05.419Z,5.24
2019-03-25T00:11:34.131Z,5.35
2019-03-25T00:14:06.528Z,5.46
2019-03-25T00:16:38.617Z,5.52
2019-03-25T00:19:10.743Z,5.64
2019-03-25T00:21:43.000Z,5.83
2019-03-25T00:24:15.072Z,5.83
2019-03-25T00:26:47.253Z,5.90
2019-03-25T00:29:19.330Z,5.92
2019-03-25T00:31:51.492Z,5.93
2019-03-25T00:34:23.919Z,5.93
2019-03-25T00:36:56.118Z,5.81
2019-03-25T00:39:28.249Z,5.78
2019-03-25T00:42:00.392Z,5.83
2019-03-25T00:44:32.790Z,5.82
2019-03-25T00:47:05.190Z,5.80
2019-03-25T00:49:37.390Z,5.76
2019-03-25T00:52:12.699Z,5.61
2019-03-25T00:54:50.054Z,5.57
2019-03-25T00:57:18.625Z,5.43
2019-03-25T00:59:53.153Z,5.30
2019-03-25T01:02:25.284Z,5.33
2019-03-25T01:04:57.345Z,5.23
2019-03-25T01:07:29.414Z,5.32
2019-03-25T01:10:01.739Z,5.34
2019-03-25T01:12:33.902Z,5.53
2019-03-25T01:15:06.374Z,5.55
2019-03-25T01:17:38.591Z,5.68
2019-03-25T01:20:11.658Z,5.79
2019-03-25T01:22:43.803Z,5.85
2019-03-25T01:25:15.967Z,5.99
2019-03-25T01:27:48.144Z,6.07
2019-03-25T01:30:20.356Z,6.12
2019-03-25T01:32:52.613Z,6.10
2019-03-25T01:35:24.569Z,6.06
2019-03-25T01:37:56.682Z,6.10
2019-03-25T01:40:28.846Z,6.15
2019-03-25T01:43:01.013Z,6.21
2019-03-25T01:45:33.785Z,6.19
2019-03-25T01:48:06.003Z,6.24
2019-03-25T01:50:38.078Z,6.25
2019-03-25T01:53:10.303Z,6.38
2019-03-25T01:55:42.293Z,6.41
2019-03-25T01:58:14.486Z,6.38
2019-03-25T02:00:46.473Z,6.44
2019-03-25T02:03:18.754Z,6.39
2019-03-25T02:05:50.921Z,6.39
2019-03-25T02:08:22.901Z,6.46
2019-03-25T02:10:55.079Z,6.42
2019-03-25T02:13:27.201Z,6.39
2019-03-25T02:15:59.299Z,6.37
2019-03-25T02:18:31.376Z,6.32
2019-03-25T02:21:06.627Z,6.27
2019-03-25T02:23:38.796Z,6.15
2019-03-25T02:26:10.956Z,6.14
2019-03-25T02:28:43.026Z,5.98
2019-03-25T02:31:15.214Z,6.07
2019-03-25T02:33:47.333Z,6.20
2019-03-25T02:36:19.535Z,6.21
2019-03-25T02:38:51.572Z,6.06
2019-03-25T02:41:23.789Z,6.03
2019-03-25T02:43:55.891Z,6.05
2019-03-25T02:46:28.116Z,6.08
2019-03-25T02:49:00.306Z,6.04
2019-03-25T02:51:32.499Z,6.01
2019-03-25T02:54:04.472Z,5.90
2019-03-25T02:56:36.587Z,5.89
2019-03-25T02:59:08.803Z,5.82
2019-03-25T03:01:40.884Z,5.76
2019-03-25T03:04:13.022Z,5.87
2019-03-25T03:06:45.132Z,5.77
2019-03-25T03:09:17.260Z,5.69
2019-03-25T03:11:49.389Z,5.63
2019-03-25T03:14:21.543Z,5.64
2019-03-25T03:16:53.613Z,5.87
2019-03-25T03:19:25.764Z,5.97
2019-03-25T03:21:57.817Z,6.05
2019-03-25T03:24:29.997Z,6.12
2019-03-25T03:27:01.988Z,6.22
2019-03-25T03:29:34.126Z,6.29
2019-03-25T03:32:06.311Z,6.36
2019-03-25T03:34:38.647Z,6.42
2019-03-25T03:37:10.800Z,6.45
2019-03-25T03:39:43.216Z,6.43
2019-03-25T03:42:15.281Z,6.42
2019-03-25T03:44:47.466Z,6.41
2019-03-25T03:47:19.647Z,6.26
2019-03-25T03:49:51.870Z,6.07
2019-03-25T03:52:24.189Z,5.98
2019-03-25T03:54:56.493Z,5.88
2019-03-25T03:57:29.159Z,5.83
2019-03-25T04:00:02.637Z,5.81
2019-03-25T04:02:34.687Z,5.75
2019-03-25T04:05:06.941Z,5.63
2019-03-25T04:07:39.098Z,5.55
2019-03-25T04:10:11.913Z,5.52
2019-03-25T04:12:44.299Z,5.52
2019-03-25T04:15:26.662Z,5.47
2019-03-25T04:17:59.755Z,5.50
2019-03-25T04:20:32.049Z,5.66
2019-03-25T04:23:04.173Z,5.71
2019-03-25T04:25:36.204Z,5.69
2019-03-25T04:28:08.248Z,5.74
2019-03-25T04:30:40.215Z,5.55
2019-03-25T04:33:12.372Z,5.21
2019-03-25T04:35:44.425Z,4.97
2019-03-25T04:38:16.566Z,4.95
2019-03-25T04:40:48.681Z,4.90
2019-03-25T04:43:20.852Z,5.03
2019-03-25T04:45:52.885Z,5.03
2019-03-25T04:48:24.985Z,5.03
2019-03-25T04:50:57.075Z,4.95
2019-03-25T04:53:29.117Z,4.85
2019-03-25T04:56:01.208Z,4.89
2019-03-25T04:58:33.296Z,4.93
2019-03-25T05:01:08.438Z,4.94
2019-03-25T05:03:40.554Z,4.97
2019-03-25T05:06:12.674Z,4.95
2019-03-25T05:08:44.717Z,4.89
2019-03-25T05:11:16.851Z,4.93
2019-03-25T05:13:48.925Z,4.66
2019-03-25T05:16:21.347Z,4.69
2019-03-25T05:18:53.663Z,4.73
2019-03-25T05:21:25.796Z,4.73
2019-03-25T05:23:57.848Z,4.61
2019-03-25T05:26:30.096Z,4.41
2019-03-25T05:29:02.134Z,4.36
2019-03-25T05:31:34.311Z,4.31
2019-03-25T05:34:06.380Z,4.33
2019-03-25T05:36:38.377Z,4.30
2019-03-25T05:39:11.522Z,4.35
2019-03-25T05:41:43.589Z,4.40
2019-03-25T05:44:15.591Z,4.50
2019-03-25T05:46:47.667Z,4.54
2019-03-25T05:49:19.865Z,4.73
2019-03-25T05:51:51.998Z,4.79
2019-03-25T05:54:24.119Z,4.89
2019-03-25T05:57:02.370Z,5.03
2019-03-25T05:59:30.029Z,5.21
2019-03-25T06:02:02.094Z,5.38
2019-03-25T06:04:34.427Z,5.38
2019-03-25T06:07:06.760Z,5.36
2019-03-25T06:09:38.986Z,5.32
2019-03-25T06:12:16.707Z,5.33
2019-03-25T06:14:51.077Z,5.30
2019-03-25T06:17:23.117Z,5.32
2019-03-25T06:20:01.446Z,5.40
2019-03-25T06:22:33.527Z,5.40
2019-03-25T06:25:09.525Z,5.56
2019-03-25T06:27:48.509Z,5.66
2019-03-25T06:30:20.847Z,5.73
2019-03-25T06:32:53.926Z,5.77
2019-03-25T06:35:26.341Z,5.99
2019-03-25T06:37:58.475Z,6.08
2019-03-25T06:40:30.552Z,6.06
2019-03-25T06:43:02.548Z,6.20
2019-03-25T06:45:34.633Z,6.32
2019-03-25T06:48:06.941Z,6.41
2019-03-25T06:50:38.888Z,6.42
2019-03-25T06:53:10.963Z,6.30
2019-03-25T06:55:43.096Z,6.40
2019-03-25T06:58:15.306Z,6.33
2019-03-25T07:00:47.416Z,6.27
2019-03-25T07:03:19.614Z,6.53
2019-03-25T07:05:51.766Z,6.66
2019-03-25T07:08:23.877Z,6.66
2019-03-25T07:10:56.089Z,6.54
2019-03-25T07:13:29.174Z,6.59
2019-03-25T07:16:01.291Z,6.51
2019-03-25T07:18:33.443Z,6.56
2019-03-25T07:21:05.613Z,6.82
2019-03-25T07:23:37.636Z,6.81
2019-03-25T07:26:09.736Z,6.83
2019-03-25T07:28:41.721Z,6.98
2019-03-25T07:31:13.834Z,6.97
2019-03-25T07:33:45.887Z,7.23
2019-03-25T07:36:17.961Z,7.96
2019-03-25T07:38:50.033Z,7.97
2019-03-25T07:41:22.127Z,8.23
2019-03-25T07:43:54.469Z,8.85
2019-03-25T07:46:26.543Z,9.40
2019-03-25T07:48:58.768Z,9.55
2019-03-25T07:51:30.716Z,9.63
2019-03-25T07:54:02.833Z,9.20
2019-03-25T07:56:34.882Z,8.73
2019-03-25T07:59:06.943Z,8.67
2019-03-25T08:01:39.173Z,8.57
2019-03-25T08:04:11.335Z,8.04
2019-03-25T08:06:43.528Z,7.77
2019-03-25T08:09:15.710Z,7.50
2019-03-25T08:11:47.831Z,7.55
2019-03-25T08:14:19.840Z,7.38
2019-03-25T08:16:51.905Z,7.20
2019-03-25T08:19:24.005Z,7.04
2019-03-25T08:21:56.139Z,6.83
2019-03-25T08:24:28.455Z,6.71
2019-03-25T08:27:00.538Z,6.48
2019-03-25T08:29:32.850Z,6.16
2019-03-25T08:32:04.919Z,6.03
2019-03-25T08:34:37.249Z,5.83
2019-03-25T08:37:09.418Z,5.71
2019-03-25T08:39:41.534Z,5.58
2019-03-25T08:42:13.521Z,5.61
2019-03-25T08:44:45.674Z,5.64
2019-03-25T08:47:17.736Z,5.87
2019-03-25T08:49:49.852Z,5.85
2019-03-25T08:52:21.942Z,5.63
2019-03-25T08:54:54.090Z,5.44
2019-03-25T08:57:26.243Z,5.52
2019-03-25T08:59:58.204Z,5.84
2019-03-25T09:02:30.226Z,5.95
2019-03-25T09:05:02.385Z,6.79
2019-03-25T09:07:34.501Z,6.70
2019-03-25T09:10:06.810Z,6.09
2019-03-25T09:12:38.969Z,5.80
2019-03-25T09:15:13.029Z,6.47
2019-03-25T09:17:45.119Z,7.66
2019-03-25T09:20:17.953Z,8.24
2019-03-25T09:22:50.735Z,9.00
2019-03-25T09:25:23.340Z,8.81
2019-03-25T09:27:55.450Z,9.35
2019-03-25T09:31:22.227Z,9.62
2019-03-25T09:33:54.249Z,9.09
2019-03-25T09:36:26.332Z,9.73
2019-03-25T09:38:58.358Z,9.43
2019-03-25T09:41:30.376Z,9.36
2019-03-25T09:44:02.438Z,8.83
2019-03-25T09:46:34.348Z,8.25
2019-03-25T09:49:06.559Z,7.71
2019-03-25T09:51:38.846Z,7.52
2019-03-25T09:54:13.873Z,7.36
2019-03-25T09:56:45.986Z,7.24
2019-03-25T09:59:18.029Z,7.43
2019-03-25T10:01:50.214Z,7.64
2019-03-25T10:04:22.297Z,8.14
2019-03-25T10:06:57.712Z,8.48
2019-03-25T10:09:29.816Z,8.55
2019-03-25T10:12:01.905Z,8.52
2019-03-25T10:14:33.965Z,8.60
2019-03-25T10:17:06.005Z,8.42
2019-03-25T10:19:38.151Z,8.47
2019-03-25T10:22:10.186Z,8.89
2019-03-25T10:24:42.348Z,9.01
2019-03-25T10:27:15.409Z,8.85
2019-03-25T10:29:47.565Z,8.73
2019-03-25T10:32:19.727Z,8.48
2019-03-25T10:34:51.906Z,8.52
2019-03-25T10:37:24.040Z,8.60
2019-03-25T10:39:56.054Z,8.63
2019-03-25T10:42:28.019Z,8.70
2019-03-25T10:45:00.372Z,8.28
2019-03-25T10:47:32.443Z,7.99
2019-03-25T10:50:05.614Z,8.13
2019-03-25T10:52:37.616Z,8.22
2019-03-25T10:55:10.359Z,8.32
2019-03-25T10:57:44.504Z,8.36
2019-03-25T11:00:18.174Z,8.28
2019-03-25T11:02:51.071Z,8.55
2019-03-25T11:05:24.303Z,8.73
2019-03-25T11:07:59.473Z,9.20
2019-03-25T11:10:37.929Z,9.25
2019-03-25T11:13:07.477Z,9.28
2019-03-25T11:15:41.629Z,9.53
2019-03-25T11:18:14.254Z,9.34
2019-03-25T11:20:47.247Z,9.64
2019-03-25T11:23:19.348Z,9.69
2019-03-25T11:25:53.071Z,9.93
2019-03-25T11:28:26.452Z,10.08
2019-03-25T11:31:02.652Z,9.83
2019-03-25T11:33:36.761Z,9.77
2019-03-25T11:36:09.028Z,10.14
2019-03-25T11:38:41.707Z,10.43
2019-03-25T11:41:13.980Z,10.44
2019-03-25T11:43:47.483Z,10.09
2019-03-25T11:46:20.380Z,10.26
2019-03-25T11:48:53.777Z,10.05
2019-03-25T11:51:26.142Z,9.95
2019-03-25T11:54:00.742Z,10.16
2019-03-25T11:56:34.141Z,10.13
2019-03-25T11:59:07.072Z,10.31
2019-03-25T12:01:40.343Z,9.77
2019-03-25T12:04:12.762Z,9.60
2019-03-25T12:06:45.511Z,9.07
2019-03-25T12:09:18.187Z,8.50
2019-03-25T12:11:50.401Z,8.55
2019-03-25T12:14:22.460Z,8.87
2019-03-25T12:16:54.790Z,8.84
2019-03-25T12:19:27.086Z,8.90
2019-03-25T12:21:59.279Z,8.97
2019-03-25T12:24:31.512Z,9.10
2019-03-25T12:27:04.417Z,9.03
2019-03-25T12:29:36.607Z,9.32
2019-03-25T12:32:08.715Z,9.65
2019-03-25T12:34:41.081Z,10.08
2019-03-25T12:37:13.223Z,9.70
2019-03-25T12:39:46.372Z,9.37
2019-03-25T12:42:20.015Z,9.17
2019-03-25T12:44:52.739Z,9.26
2019-03-25T12:47:25.427Z,9.49
2019-03-25T12:49:58.734Z,9.45
2019-03-25T12:52:34.860Z,8.76
2019-03-25T12:55:12.073Z,7.43
2019-03-25T12:57:44.613Z,7.53
2019-03-25T13:00:21.333Z,7.62
2019-03-25T13:02:54.978Z,7.59
2019-03-25T13:05:30.954Z,7.49
2019-03-25T13:08:03.327Z,7.54
2019-03-25T13:10:36.251Z,7.48
2019-03-25T13:13:08.601Z,7.90
2019-03-25T13:15:40.926Z,8.37
2019-03-25T13:18:13.270Z,8.98
2019-03-25T13:20:45.921Z,9.46
2019-03-25T13:23:18.091Z,9.71
2019-03-25T13:25:53.276Z,9.36
2019-03-25T13:28:26.206Z,8.43
2019-03-25T13:30:58.808Z,7.80
2019-03-25T13:33:31.041Z,7.58
2019-03-25T13:36:03.547Z,7.33
2019-03-25T13:38:35.846Z,7.48
2019-03-25T13:41:08.401Z,7.72
2019-03-25T13:43:41.227Z,8.01
2019-03-25T13:46:13.807Z,8.18
2019-03-25T13:48:47.078Z,8.34
2019-03-25T13:51:19.314Z,8.35
2019-03-25T13:53:52.086Z,8.39
2019-03-25T13:56:24.330Z,8.38
2019-03-25T13:58:56.456Z,8.38
2019-03-25T14:01:28.578Z,8.61
2019-03-25T14:04:00.851Z,8.71
2019-03-25T14:06:32.999Z,8.84
2019-03-25T14:09:06.346Z,9.09
2019-03-25T14:11:38.469Z,9.55
2019-03-25T14:14:10.688Z,10.10
2019-03-25T14:16:43.140Z,9.87
2019-03-25T14:19:19.286Z,9.58
2019-03-25T14:21:51.561Z,9.45
2019-03-25T14:24:24.462Z,9.14
2019-03-25T14:26:56.570Z,8.89
2019-03-25T14:29:29.140Z,8.31
2019-03-25T14:32:03.066Z,7.70
2019-03-25T14:34:44.382Z,7.23
2019-03-25T14:37:09.309Z,7.12
2019-03-25T14:39:41.663Z,7.20
2019-03-25T14:42:14.914Z,7.16
2019-03-25T14:44:47.226Z,7.29
2019-03-25T14:47:19.365Z,7.40
2019-03-25T14:49:51.564Z,7.60
2019-03-25T14:52:23.629Z,7.65
2019-03-25T14:54:55.746Z,7.73
2019-03-25T14:57:27.873Z,8.02
2019-03-25T15:00:00.024Z,8.23
2019-03-25T15:02:32.131Z,8.28
2019-03-25T15:05:04.492Z,8.39
2019-03-25T15:07:36.700Z,8.56
2019-03-25T15:10:09.663Z,8.61
2019-03-25T15:12:41.796Z,8.55
2019-03-25T15:15:14.717Z,8.35
2019-03-25T15:17:47.053Z,8.54
2019-03-25T15:20:19.530Z,8.62
2019-03-25T15:22:51.810Z,8.57
2019-03-25T15:25:24.132Z,8.74
2019-03-25T15:27:56.285Z,8.77
2019-03-25T15:30:35.790Z,8.63
2019-03-25T15:33:02.311Z,8.46
2019-03-25T15:35:34.757Z,8.46
2019-03-25T15:38:06.992Z,8.71
2019-03-25T15:40:39.246Z,8.79
2019-03-25T15:43:11.481Z,8.78
2019-03-25T15:45:43.604Z,8.96
2019-03-25T15:48:15.831Z,8.89
2019-03-25T15:50:47.819Z,8.85
2019-03-25T15:53:19.922Z,8.82
2019-03-25T15:55:51.989Z,8.92
2019-03-25T15:58:26.341Z,9.08
2019-03-25T16:00:58.048Z,9.24
2019-03-25T16:03:30.518Z,9.53
2019-03-25T16:06:02.637Z,9.33
2019-03-25T16:08:34.758Z,9.16
2019-03-25T16:11:07.913Z,9.25
2019-03-25T16:13:39.987Z,9.55
2019-03-25T16:16:12.085Z,9.27
2019-03-25T16:18:44.862Z,9.19
2019-03-25T16:21:16.932Z,8.97
2019-03-25T16:23:49.083Z,9.00
2019-03-25T16:26:21.223Z,8.97
2019-03-25T16:28:53.323Z,8.96
2019-03-25T16:31:25.513Z,8.89
2019-03-25T16:33:57.605Z,8.89
2019-03-25T16:36:29.738Z,8.81
2019-03-25T16:39:01.713Z,8.73
2019-03-25T16:41:33.786Z,8.67
2019-03-25T16:44:06.012Z,8.64
2019-03-25T16:46:38.602Z,8.65
2019-03-25T16:49:10.886Z,8.58
2019-03-25T16:51:43.153Z,8.49
2019-03-25T16:54:15.246Z,8.45
2019-03-25T16:56:47.357Z,8.31
2019-03-25T16:59:19.479Z,8.33
2019-03-25T17:01:51.579Z,8.43
2019-03-25T17:04:23.828Z,8.45
2019-03-25T17:06:56.005Z,8.43
2019-03-25T17:09:28.099Z,8.41
2019-03-25T17:12:00.553Z,8.44
2019-03-25T17:14:32.735Z,8.44
2019-03-25T17:17:04.856Z,8.36
2019-03-25T17:19:36.940Z,8.32
2019-03-25T17:22:09.234Z,8.27
2019-03-25T17:24:41.641Z,8.27
2019-03-25T17:27:13.850Z,8.23
2019-03-25T17:29:46.154Z,8.17
2019-03-25T17:32:18.271Z,8.17
2019-03-25T17:34:50.419Z,8.15
2019-03-25T17:37:22.579Z,8.21
2019-03-25T17:39:54.808Z,8.18
2019-03-25T17:42:26.986Z,8.14
2019-03-25T17:44:59.062Z,8.06
2019-03-25T17:47:31.161Z,8.03
2019-03-25T17:50:03.312Z,8.02
2019-03-25T17:52:35.454Z,8.00
2019-03-25T17:55:08.142Z,8.00
2019-03-25T17:57:40.248Z,7.98
2019-03-25T18:00:13.829Z,7.87
2019-03-25T18:02:46.106Z,7.83
2019-03-25T18:05:18.205Z,7.80
2019-03-25T18:07:50.512Z,7.82
2019-03-25T18:10:22.690Z,7.84
2019-03-25T18:12:54.748Z,7.78
2019-03-25T18:15:26.920Z,7.78
2019-03-25T18:17:59.010Z,7.78
2019-03-25T18:20:31.116Z,7.69
2019-03-25T18:23:03.322Z,7.69
2019-03-25T18:25:39.602Z,7.64
2019-03-25T18:28:22.087Z,7.72
2019-03-25T18:30:54.465Z,7.72
2019-03-25T18:33:26.813Z,7.72
2019-03-25T18:35:59.054Z,7.78
2019-03-25T18:38:31.302Z,7.75
2019-03-25T18:41:03.862Z,7.77
2019-03-25T18:43:36.015Z,7.78
2019-03-25T18:46:08.240Z,7.74
2019-03-25T18:48:42.076Z,7.73
2019-03-25T18:51:14.213Z,7.72
2019-03-25T18:53:46.745Z,7.72
2019-03-25T18:56:18.907Z,7.64
2019-03-25T18:58:50.943Z,7.61
2019-03-25T19:01:23.674Z,7.56
2019-03-25T19:03:56.330Z,7.58
2019-03-25T19:06:29.194Z,7.54
2019-03-25T19:09:01.572Z,7.54
2019-03-25T19:11:33.997Z,7.58
2019-03-25T19:14:06.047Z,7.59
2019-03-25T19:16:38.225Z,7.58
2019-03-25T19:19:29.169Z,7.59
2019-03-25T19:22:01.480Z,7.56
2019-03-25T19:24:37.382Z,7.53
2019-03-25T19:27:09.159Z,7.58
2019-03-25T19:29:41.327Z,7.55
2019-03-25T19:32:13.544Z,7.58
2019-03-25T19:35:20.055Z,7.59
2019-03-25T19:37:20.816Z,7.60
2019-03-25T19:40:04.058Z,7.59
2019-03-25T19:42:36.306Z,7.60
2019-03-25T19:45:09.195Z,7.62
2019-03-25T19:47:43.890Z,7.58
2019-03-25T19:50:17.228Z,7.51
2019-03-25T19:52:49.497Z,7.58
2019-03-25T19:55:21.528Z,7.51
2019-03-25T19:57:53.680Z,7.54
2019-03-25T20:00:38.494Z,7.48
2019-03-25T20:03:10.718Z,7.42
2019-03-25T20:05:42.872Z,7.33
2019-03-25T20:08:15.032Z,7.38
2019-03-25T20:10:47.118Z,7.33
2019-03-25T20:13:19.191Z,7.26
2019-03-25T20:15:51.426Z,7.29
2019-03-25T20:18:23.582Z,7.24
2019-03-25T20:20:55.706Z,7.25
2019-03-25T20:23:27.803Z,7.25
2019-03-25T20:25:59.945Z,7.20
2019-03-25T20:28:32.026Z,7.24
2019-03-25T20:31:14.463Z,7.24
2019-03-25T20:33:46.589Z,7.17
2019-03-25T20:36:18.751Z,7.14
2019-03-25T20:38:54.086Z,7.19
2019-03-25T20:41:26.305Z,7.15
2019-03-25T20:43:58.607Z,7.16
2019-03-25T20:46:30.776Z,7.20
2019-03-25T20:49:03.084Z,7.23
2019-03-25T20:51:39.063Z,7.20
2019-03-25T20:54:11.341Z,7.12
2019-03-25T20:56:43.790Z,7.09
2019-03-25T20:59:18.568Z,7.07
2019-03-25T21:01:50.839Z,7.03
2019-03-25T21:04:22.972Z,6.94
2019-03-25T21:06:57.613Z,6.81
2019-03-25T21:09:31.847Z,6.80
2019-03-25T21:12:04.051Z,6.82
2019-03-25T21:14:36.162Z,6.93
2019-03-25T21:17:08.379Z,7.00
2019-03-25T21:19:40.674Z,7.02
2019-03-25T21:22:13.340Z,7.03
2019-03-25T21:24:45.545Z,7.06
2019-03-25T21:27:17.831Z,7.10
2019-03-25T21:29:50.196Z,7.10
2019-03-25T21:32:22.506Z,7.05
2019-03-25T21:34:54.677Z,7.00
2019-03-25T21:37:29.492Z,7.02
2019-03-25T21:40:01.772Z,7.01
2019-03-25T21:42:35.203Z,6.90
2019-03-25T21:45:08.135Z,6.81
2019-03-25T21:47:40.515Z,6.83
2019-03-25T21:50:13.274Z,6.75
2019-03-25T21:52:45.392Z,6.74
2019-03-25T21:55:17.527Z,6.68
2019-03-25T21:57:51.867Z,6.63
2019-03-25T22:00:23.870Z,6.54
2019-03-25T22:02:56.223Z,6.50
2019-03-25T22:05:31.426Z,6.47
2019-03-25T22:08:03.537Z,6.42
2019-03-25T22:10:35.657Z,6.34
2019-03-25T22:13:07.911Z,6.31
2019-03-25T22:15:40.106Z,6.34
2019-03-25T22:18:19.109Z,6.43
2019-03-25T22:20:51.150Z,6.46
2019-03-25T22:23:25.118Z,6.48
2019-03-25T22:25:57.171Z,6.47
2019-03-25T22:28:29.243Z,6.45
2019-03-25T22:31:01.375Z,6.46
2019-03-25T22:33:33.421Z,6.45
2019-03-25T22:36:05.595Z,6.32
2019-03-25T22:38:37.661Z,6.31
2019-03-25T22:41:09.794Z,6.24
2019-03-25T22:43:41.793Z,6.22
2019-03-25T22:46:16.639Z,6.22
2019-03-25T22:48:48.864Z,6.12
2019-03-25T22:51:21.028Z,6.13
2019-03-25T22:53:53.113Z,6.15
2019-03-25T22:56:25.267Z,6.20
2019-03-25T22:58:57.426Z,6.15
2019-03-25T23:01:31.346Z,6.24
2019-03-25T23:04:03.581Z,6.26
2019-03-25T23:09:09.179Z,6.38
2019-03-25T23:11:41.318Z,6.34
2019-03-25T23:14:13.391Z,6.30
2019-03-25T23:16:45.655Z,6.34
2019-03-25T23:19:17.897Z,6.30
2019-03-25T23:21:49.991Z,6.31
2019-03-25T23:24:22.093Z,6.37
2019-03-25T23:26:54.227Z,6.37
2019-03-25T23:29:26.454Z,6.40
2019-03-25T23:31:58.711Z,6.38
2019-03-25T23:34:30.960Z,6.33
2019-03-25T23:37:03.192Z,6.37
2019-03-25T23:39:35.338Z,6.38
2019-03-25T23:42:07.498Z,6.30
2019-03-25T23:44:39.756Z,6.43
2019-03-25T23:47:11.973Z,6.43
2019-03-25T23:49:44.109Z,6.42
2019-03-25T23:52:16.347Z,6.43
2019-03-25T23:54:48.501Z,6.45
2019-03-25T23:57:20.678Z,6.48
2019-03-25T23:59:52.951Z,6.49
